Terminal Aerodrome Forecast
Issued by NWS

Home | Current Version | Previous Version | Text Only | Print | Product List | Glossary On
Versions: 1 2 3 4 5 6 7 8 9 10 11 12 13
000
FTPA31 PHFO 232342
TAFHJR
TAF
PHJR 232342Z 2400/2424 04010G20KT P6SM VCSH SCT025 BKN035 OVC045
     FM240200 04010G20KT 6SM -SHRA SCT025 BKN035
     FM241800 06017G24KT 6SM -SHRA SCT025 BKN035=

USA.gov is the U.S. government's official web portal to all federal, state and local government web resources and services.